Time;durP1;ratioP1;P1;durP2;ratioP2;P2;SDS_P1;SDS_P2;PMS_P1;PMS_P2;Temp;Humidity;BMP_temperature;BMP_pressure;BME280_temperature;BME280_humidity;BME280_pressure;Samples;Min_cycle;Max_cycle;Signal;HPM_P1;HPM_P2
2021/08/22 00:01:25;;;;;;;19.52;11.95;;;;;;;25.23;50.94;100552.31;4423252;32;20045;-67
2021/08/22 00:03:51;;;;;;;17.27;11.32;;;;;;;24.95;51.41;100554.78;4419959;32;20106;-67
2021/08/22 00:06:16;;;;;;;22.90;12.02;;;;;;;25.12;50.96;100555.31;4423956;32;20114;-67
2021/08/22 00:08:43;;;;;;;19.83;12.15;;;;;;;25.17;50.78;100552.41;4420867;32;20485;-67
2021/08/22 00:11:09;;;;;;;20.40;11.85;;;;;;;25.13;51.15;100554.03;4424903;32;20484;-67
2021/08/22 00:13:35;;;;;;;18.40;11.40;;;;;;;25.14;50.65;100556.34;4423676;32;20049;-67
2021/08/22 00:16:01;;;;;;;20.17;12.13;;;;;;;25.09;50.53;100560.09;4422802;32;20094;-67
2021/08/22 00:18:27;;;;;;;18.17;11.07;;;;;;;24.96;50.87;100554.25;4419826;32;20046;-67
2021/08/22 00:20:53;;;;;;;18.08;11.38;;;;;;;24.85;51.05;100560.13;4423736;32;20096;-67
2021/08/22 00:23:19;;;;;;;22.90;11.95;;;;;;;25.06;50.26;100566.94;4423800;32;20101;-67
2021/08/22 00:25:44;;;;;;;20.60;12.52;;;;;;;25.40;49.64;100569.37;4420098;32;20447;-67
2021/08/22 00:28:10;;;;;;;23.35;11.60;;;;;;;24.99;50.73;100570.44;4420907;32;20561;-67
2021/08/22 00:30:37;;;;;;;19.95;10.48;;;;;;;25.09;50.77;100576.56;4427219;32;20477;-67
2021/08/22 00:33:03;;;;;;;16.33;9.73;;;;;;;25.19;50.75;100572.78;4421367;32;20109;-67
2021/08/22 00:35:29;;;;;;;15.63;10.02;;;;;;;25.17;50.78;100577.53;4426655;32;20479;-67
2021/08/22 00:37:56;;;;;;;17.80;9.90;;;;;;;25.44;49.75;100581.38;4423549;32;20527;-67
2021/08/22 00:40:22;;;;;;;18.17;9.40;;;;;;;25.56;49.41;100579.87;4419002;32;20107;-67
2021/08/22 00:42:48;;;;;;;18.15;9.70;;;;;;;25.53;49.49;100581.75;4419601;32;20076;-67
2021/08/22 00:45:14;;;;;;;18.05;10.40;;;;;;;25.66;49.42;100593.34;4420086;32;20089;-67
2021/08/22 00:47:43;;;;;;;13.55;9.45;;;;;;;25.50;49.67;100588.63;4419303;32;20359;-67
2021/08/22 00:50:15;;;;;;;18.25;9.75;;;;;;;25.78;49.06;100586.09;4419377;32;20080;-67
2021/08/22 00:52:41;;;;;;;19.33;10.57;;;;;;;25.83;49.13;100587.34;4419995;32;20055;-67
2021/08/22 00:55:07;;;;;;;16.20;9.80;;;;;;;25.61;49.52;100579.03;4423107;32;20125;-67
2021/08/22 00:57:34;;;;;;;17.35;9.98;;;;;;;25.50;49.38;100576.31;4422790;32;20094;-67
2021/08/22 01:00:06;;;;;;;16.05;10.32;;;;;;;25.83;49.06;100578.69;4422064;32;20424;-67
2021/08/22 01:02:34;;;;;;;18.95;10.82;;;;;;;25.97;48.55;100578.19;4422126;32;20095;-67
2021/08/22 01:07:45;;;;;;;17.02;11.15;;;;;;;26.13;48.44;100577.13;4001280;31;15141894;-68
2021/08/22 01:10:14;;;;;;;21.90;10.57;;;;;;;26.13;48.44;100577.13;4458095;32;20068;-68
2021/08/22 01:12:45;;;;;;;20.02;10.80;;;;;;;25.66;49.32;100584.72;4458477;32;20029;-68
2021/08/22 01:15:13;;;;;;;18.98;10.55;;;;;;;26.03;48.48;100583.88;4458313;32;20081;-68
2021/08/22 01:17:45;;;;;;;17.80;10.52;;;;;;;25.91;48.70;100583.25;4458509;32;20429;-68
2021/08/22 01:22:51;;;;;;;13.75;9.35;;;;;;;26.36;47.56;100580.41;4001644;31;15016849;-69
2021/08/22 01:25:19;;;;;;;14.48;9.27;;;;;;;26.36;47.56;100580.41;4453828;32;20377;-68
2021/08/22 01:27:45;;;;;;;14.82;9.23;;;;;;;25.83;48.21;100575.81;4452857;32;20413;-68
2021/08/22 01:30:16;;;;;;;17.20;8.75;;;;;;;25.69;48.72;100574.97;4463404;32;20077;-68
2021/08/22 01:32:44;;;;;;;15.73;9.73;;;;;;;25.84;48.52;100569.50;4456307;32;20059;-68
2021/08/22 01:35:13;;;;;;;12.35;8.35;;;;;;;25.73;48.77;100565.97;4466082;32;20028;-68
2021/08/22 01:37:41;;;;;;;15.77;8.95;;;;;;;25.56;49.36;100562.59;4459419;32;20422;-68
2021/08/22 01:40:10;;;;;;;13.85;8.88;;;;;;;25.69;49.13;100560.56;4460772;32;20098;-68
2021/08/22 01:42:37;;;;;;;15.65;9.63;;;;;;;25.86;48.47;100561.06;4460921;32;20084;-68
2021/08/22 01:45:14;;;;;;;11.43;7.80;;;;;;;25.84;48.66;100565.81;4456810;32;20098;-68
2021/08/22 01:47:44;;;;;;;14.40;9.05;;;;;;;25.91;48.57;100573.81;4462723;32;20056;-68
2021/08/22 01:50:11;;;;;;;13.60;8.88;;;;;;;25.61;49.16;100579.03;4458469;32;20045;-68
2021/08/22 01:52:38;;;;;;;13.27;8.70;;;;;;;25.86;48.51;100583.34;4441714;32;20041;-68
2021/08/22 01:55:06;;;;;;;14.63;9.48;;;;;;;25.76;48.67;100587.94;4464071;32;20832;-68
2021/08/22 01:57:32;;;;;;;14.77;8.98;;;;;;;25.75;48.66;100589.28;4458689;32;20506;-68
2021/08/22 01:59:59;;;;;;;14.35;9.57;;;;;;;25.64;49.30;100589.47;4457136;32;20096;-68
2021/08/22 02:02:25;;;;;;;16.17;9.88;;;;;;;25.62;49.00;100592.13;4460400;32;20041;-68
2021/08/22 02:05:11;;;;;;;15.57;9.18;;;;;;;25.81;48.38;100599.41;4451646;32;20638;-68
2021/08/22 02:07:37;;;;;;;16.02;8.20;;;;;;;26.18;47.27;100599.34;4456823;32;20097;-68
2021/08/22 02:10:10;;;;;;;12.77;8.20;;;;;;;25.86;48.37;100598.53;4454437;32;20081;-68
2021/08/22 02:12:39;;;;;;;18.23;9.35;;;;;;;26.06;47.68;100608.72;4459906;32;20076;-68
2021/08/22 02:15:10;;;;;;;17.08;9.48;;;;;;;25.91;48.51;100605.53;4461018;32;20040;-68
2021/08/22 02:17:57;;;;;;;14.68;8.70;;;;;;;25.90;48.57;100604.00;4456614;32;20085;-68
2021/08/22 02:20:24;;;;;;;15.80;9.80;;;;;;;26.31;47.61;100602.25;4457690;32;20073;-68
2021/08/22 02:22:50;;;;;;;15.00;9.55;;;;;;;26.15;47.95;100606.22;4462305;32;20126;-68
2021/08/22 02:25:17;;;;;;;14.10;9.73;;;;;;;25.91;48.45;100596.87;4458503;32;20049;-67
2021/08/22 02:27:43;;;;;;;13.65;9.00;;;;;;;25.99;48.55;100604.41;4461217;32;20040;-68
2021/08/22 02:30:09;;;;;;;17.08;9.55;;;;;;;25.78;48.35;100597.63;4454862;32;20084;-68
2021/08/22 02:32:35;;;;;;;13.60;9.38;;;;;;;25.80;48.58;100600.72;4459534;32;20091;-68
2021/08/22 02:35:01;;;;;;;16.55;9.55;;;;;;;25.55;49.43;100610.03;4448875;32;20077;-67
2021/08/22 02:37:28;;;;;;;15.30;9.77;;;;;;;25.82;48.86;100609.63;4449172;32;20045;-68
2021/08/22 02:39:55;;;;;;;15.05;9.57;;;;;;;25.84;48.90;100609.06;4446298;32;20212;-68
2021/08/22 02:42:20;;;;;;;18.10;10.50;;;;;;;25.68;49.06;100607.22;4448665;32;21506;-68
2021/08/22 02:44:46;;;;;;;15.27;9.20;;;;;;;25.75;49.29;100606.59;4451213;32;20037;-68
2021/08/22 02:47:14;;;;;;;15.75;9.52;;;;;;;25.92;49.02;100598.47;4445322;32;20055;-68
2021/08/22 02:49:40;;;;;;;14.63;9.45;;;;;;;25.93;48.97;100606.56;4445527;32;20041;-68
2021/08/22 02:52:06;;;;;;;15.27;9.52;;;;;;;26.03;48.66;100604.84;4457669;32;20456;-68
2021/08/22 02:54:32;;;;;;;15.43;9.82;;;;;;;25.81;49.15;100604.38;4445299;32;20099;-68
2021/08/22 02:56:58;;;;;;;13.90;9.05;;;;;;;26.01;48.75;100603.84;4444463;32;20037;-68
2021/08/22 02:59:23;;;;;;;17.27;10.07;;;;;;;26.14;48.23;100601.00;4445995;32;20129;-68
2021/08/22 03:01:49;;;;;;;15.27;8.93;;;;;;;25.96;48.41;100614.13;4448351;32;20104;-68
2021/08/22 03:04:15;;;;;;;14.95;9.05;;;;;;;25.97;48.39;100617.75;4446377;32;20076;-68
2021/08/22 03:06:40;;;;;;;14.93;9.38;;;;;;;25.90;48.69;100618.41;4449556;32;20109;-68
2021/08/22 03:09:06;;;;;;;14.80;9.15;;;;;;;26.08;48.33;100620.50;4451208;32;20048;-68
2021/08/22 03:11:32;;;;;;;16.17;9.80;;;;;;;25.84;48.43;100618.50;4449324;32;20152;-68
2021/08/22 03:13:58;;;;;;;17.65;9.77;;;;;;;25.89;48.62;100620.50;4439225;32;20064;-68
2021/08/22 03:16:25;;;;;;;14.50;8.82;;;;;;;25.96;48.49;100627.75;4449904;32;20067;-68
2021/08/22 03:18:51;;;;;;;15.20;9.38;;;;;;;26.07;48.47;100627.59;4449594;32;20042;-68
2021/08/22 03:21:16;;;;;;;19.80;9.90;;;;;;;26.34;47.96;100626.34;4441770;32;20406;-67
2021/08/22 03:23:42;;;;;;;13.52;8.68;;;;;;;26.43;47.64;100629.59;4450598;32;20092;-68
2021/08/22 03:26:08;;;;;;;15.13;9.52;;;;;;;26.52;47.63;100631.28;4454602;32;20410;-68
2021/08/22 03:28:34;;;;;;;14.77;9.50;;;;;;;26.39;48.09;100628.38;4451296;32;20096;-68
2021/08/22 03:31:00;;;;;;;16.80;9.85;;;;;;;26.62;47.49;100632.41;4445805;32;20094;-68
2021/08/22 03:33:26;;;;;;;14.40;9.32;;;;;;;26.53;47.38;100630.72;4449549;32;20033;-68
2021/08/22 03:35:51;;;;;;;17.48;9.57;;;;;;;26.41;47.89;100629.34;4443987;32;20076;-68
2021/08/22 03:38:17;;;;;;;15.30;9.23;;;;;;;26.57;47.21;100627.50;4445459;32;20095;-68
2021/08/22 03:40:43;;;;;;;15.60;10.50;;;;;;;26.56;47.23;100643.25;4446122;32;20173;-69
2021/08/22 03:43:09;;;;;;;15.60;9.20;;;;;;;26.66;46.78;100630.75;4444646;32;20101;-68
2021/08/22 03:45:34;;;;;;;13.27;9.48;;;;;;;26.50;47.32;100633.91;4451556;32;20075;-68
2021/08/22 03:48:00;;;;;;;17.00;9.82;;;;;;;26.60;47.66;100635.81;4450304;32;20069;-68
2021/08/22 03:50:26;;;;;;;14.98;10.32;;;;;;;26.54;47.65;100635.16;4441618;32;20067;-68
2021/08/22 03:52:52;;;;;;;15.43;9.75;;;;;;;26.53;47.68;100629.94;4452134;32;20076;-68
2021/08/22 03:55:19;;;;;;;16.73;10.27;;;;;;;26.52;47.69;100626.28;4442633;32;20113;-68
2021/08/22 03:57:45;;;;;;;14.77;9.90;;;;;;;26.68;47.28;100622.34;4454611;32;20085;-68
2021/08/22 04:00:12;;;;;;;15.48;9.63;;;;;;;26.56;47.71;100631.72;4446791;32;20519;-68
2021/08/22 04:02:38;;;;;;;15.35;9.85;;;;;;;26.80;47.08;100634.44;4448723;32;20091;-68
2021/08/22 04:05:07;;;;;;;19.48;11.07;;;;;;;26.72;46.98;100631.44;4442114;32;20073;-68
2021/08/22 04:07:33;;;;;;;18.70;10.68;;;;;;;26.74;47.27;100637.44;4445282;32;20115;-68
2021/08/22 04:09:59;;;;;;;17.55;10.68;;;;;;;26.81;47.04;100642.56;4449341;32;20063;-68
2021/08/22 04:12:26;;;;;;;14.52;9.88;;;;;;;26.81;46.57;100648.31;4449265;32;20362;-68
2021/08/22 04:14:52;;;;;;;21.35;10.93;;;;;;;26.95;46.91;100646.22;4449553;32;20034;-68
2021/08/22 04:17:18;;;;;;;16.27;10.63;;;;;;;26.68;47.15;100645.44;4444521;32;20053;-68
2021/08/22 04:19:44;;;;;;;16.55;11.00;;;;;;;27.02;46.72;100654.22;4449975;32;20089;-68
2021/08/22 04:22:10;;;;;;;21.40;11.88;;;;;;;26.98;46.44;100653.78;4446208;32;20436;-68
2021/08/22 04:24:36;;;;;;;16.08;11.35;;;;;;;26.70;47.28;100651.44;4449984;32;20458;-68
2021/08/22 04:27:04;;;;;;;22.92;11.70;;;;;;;26.73;47.32;100658.22;4451463;32;20079;-68
2021/08/22 04:29:34;;;;;;;18.45;12.00;;;;;;;27.02;46.89;100660.00;4444656;32;20443;-68
2021/08/22 04:31:59;;;;;;;22.52;13.77;;;;;;;27.11;46.69;100654.56;4451771;32;20025;-68
2021/08/22 04:34:25;;;;;;;19.45;12.37;;;;;;;26.77;47.15;100659.44;4437892;32;20418;-68
2021/08/22 04:36:51;;;;;;;21.02;12.20;;;;;;;26.60;47.59;100661.81;4429084;32;20108;-68
2021/08/22 04:39:16;;;;;;;21.62;13.27;;;;;;;26.80;47.07;100658.34;4451813;32;20381;-68
2021/08/22 04:41:44;;;;;;;22.42;13.13;;;;;;;26.90;46.42;100659.44;4449883;32;20037;-68
2021/08/22 04:44:09;;;;;;;25.17;13.60;;;;;;;26.86;46.54;100659.00;4448553;32;20101;-68
2021/08/22 04:46:35;;;;;;;25.42;13.32;;;;;;;26.70;47.05;100650.66;4445994;32;20053;-67
2021/08/22 04:49:00;;;;;;;21.08;12.52;;;;;;;26.74;46.94;100660.53;4451103;32;20100;-67
2021/08/22 04:51:26;;;;;;;23.33;13.65;;;;;;;26.80;47.03;100658.34;4443604;32;20080;-67
2021/08/22 04:53:52;;;;;;;22.55;13.02;;;;;;;26.69;47.34;100652.75;4449200;32;20069;-67
2021/08/22 04:56:18;;;;;;;21.15;14.10;;;;;;;26.92;46.79;100662.56;4447384;32;20350;-67
2021/08/22 04:58:43;;;;;;;20.20;12.88;;;;;;;26.82;46.99;100657.78;4444176;32;20462;-67
2021/08/22 05:01:09;;;;;;;22.35;13.40;;;;;;;26.66;47.38;100662.53;4450322;32;20528;-67
2021/08/22 05:03:35;;;;;;;25.27;13.57;;;;;;;26.84;47.04;100666.66;4445005;32;20158;-68
2021/08/22 05:06:01;;;;;;;20.95;13.00;;;;;;;26.86;46.87;100670.56;4445528;32;20080;-68
2021/08/22 05:08:27;;;;;;;28.25;13.43;;;;;;;26.81;46.90;100673.53;4437783;32;20100;-67
2021/08/22 05:10:55;;;;;;;21.83;13.85;;;;;;;26.71;47.07;100675.28;4445755;32;20152;-67
2021/08/22 05:13:22;;;;;;;21.20;12.73;;;;;;;26.71;47.50;100678.97;4445938;32;20077;-67
2021/08/22 05:15:50;;;;;;;26.70;14.13;;;;;;;26.99;46.69;100690.78;4446913;32;20405;-67
2021/08/22 05:18:17;;;;;;;25.58;13.27;;;;;;;27.02;46.76;100686.78;4445286;32;20092;-67
2021/08/22 05:20:43;;;;;;;21.45;13.52;;;;;;;26.94;46.92;100696.66;4450017;32;20120;-67
2021/08/22 05:23:09;;;;;;;24.92;14.27;;;;;;;26.84;47.16;100690.53;4444250;32;20124;-67
2021/08/22 05:25:35;;;;;;;23.98;13.75;;;;;;;26.86;47.37;100699.44;4441410;32;20089;-67
2021/08/22 05:28:01;;;;;;;22.83;12.63;;;;;;;26.98;46.97;100700.78;4442421;32;20057;-67
2021/08/22 05:30:26;;;;;;;20.85;12.93;;;;;;;26.92;46.84;100699.31;4444348;32;20076;-67
2021/08/22 05:32:53;;;;;;;23.20;13.90;;;;;;;27.14;46.79;100698.91;4451594;32;20069;-67
2021/08/22 05:35:18;;;;;;;23.92;13.50;;;;;;;27.12;46.86;100713.91;4446088;32;20140;-67
2021/08/22 05:37:44;;;;;;;29.23;14.18;;;;;;;27.02;47.06;100709.91;4447167;32;20073;-67
2021/08/22 05:40:11;;;;;;;21.80;12.82;;;;;;;26.88;47.24;100724.87;4445226;32;20049;-67
2021/08/22 05:42:36;;;;;;;24.98;13.43;;;;;;;27.06;47.09;100716.09;4450786;32;20393;-67
2021/08/22 05:45:03;;;;;;;24.58;13.60;;;;;;;27.13;46.88;100726.25;4445705;32;20048;-68
2021/08/22 05:47:29;;;;;;;26.85;14.32;;;;;;;27.26;46.52;100734.16;4440323;32;20420;-67
2021/08/22 05:49:54;;;;;;;28.15;14.07;;;;;;;27.23;46.32;100738.91;4450559;32;20045;-67
2021/08/22 05:52:20;;;;;;;25.88;14.45;;;;;;;27.24;46.57;100749.16;4451980;32;20097;-67
2021/08/22 05:54:46;;;;;;;26.42;14.52;;;;;;;27.03;47.03;100749.00;4447483;32;20161;-67
2021/08/22 05:57:12;;;;;;;26.95;14.87;;;;;;;26.84;47.58;100747.50;4440123;32;20124;-67
2021/08/22 05:59:37;;;;;;;22.85;13.90;;;;;;;26.92;47.63;100751.31;4446567;32;20435;-67
2021/08/22 06:02:03;;;;;;;26.48;15.70;;;;;;;26.92;47.60;100757.88;4444367;32;20282;-67
2021/08/22 06:04:31;;;;;;;27.50;15.77;;;;;;;27.39;46.75;100754.41;4431571;32;20037;-67
2021/08/22 06:06:57;;;;;;;29.08;15.00;;;;;;;27.33;46.51;100756.63;4449365;32;20094;-67
2021/08/22 06:09:23;;;;;;;24.73;15.75;;;;;;;27.25;46.45;100752.84;4448548;32;20145;-67
2021/08/22 06:11:50;;;;;;;23.48;14.07;;;;;;;27.10;46.58;100759.91;4448648;32;20040;-67
2021/08/22 06:14:15;;;;;;;25.80;14.95;;;;;;;27.25;46.45;100765.19;4451854;32;20041;-67
2021/08/22 06:16:41;;;;;;;24.45;14.02;;;;;;;27.43;45.95;100767.19;4435679;32;20481;-67
2021/08/22 06:19:07;;;;;;;22.95;13.40;;;;;;;27.52;45.62;100772.50;4447783;32;20136;-68
2021/08/22 06:21:33;;;;;;;23.98;14.20;;;;;;;27.64;45.46;100776.72;4451257;32;20041;-68
2021/08/22 06:23:59;;;;;;;22.75;13.40;;;;;;;27.68;45.57;100785.06;4448058;32;20084;-68
2021/08/22 06:26:26;;;;;;;21.45;13.25;;;;;;;27.75;44.72;100788.06;4448758;32;20073;-68
2021/08/22 06:28:52;;;;;;;21.42;12.75;;;;;;;28.20;44.39;100791.59;4452721;32;20107;-68
2021/08/22 06:31:18;;;;;;;19.95;11.98;;;;;;;28.20;44.13;100799.50;4446451;32;20053;-68
2021/08/22 06:33:45;;;;;;;21.10;12.40;;;;;;;27.99;44.48;100792.84;4447441;32;20122;-67
2021/08/22 06:36:12;;;;;;;20.77;11.63;;;;;;;28.57;43.65;100794.19;4444587;32;20204;-68
2021/08/22 06:38:38;;;;;;;17.92;11.98;;;;;;;28.68;43.42;100798.91;4452254;32;21171;-68
2021/08/22 06:41:05;;;;;;;16.75;10.55;;;;;;;28.95;42.96;100803.22;4448628;32;20414;-68
2021/08/22 06:43:31;;;;;;;14.45;8.80;;;;;;;28.98;42.35;100808.69;4445745;32;20076;-68
2021/08/22 06:45:56;;;;;;;16.33;7.70;;;;;;;28.98;42.47;100820.28;4452095;32;20033;-68
2021/08/22 06:48:23;;;;;;;11.57;7.57;;;;;;;29.36;41.47;100820.59;4449742;32;20049;-68
2021/08/22 06:50:49;;;;;;;12.57;6.95;;;;;;;29.55;41.23;100820.37;4447299;32;20036;-68
2021/08/22 06:53:15;;;;;;;11.00;4.90;;;;;;;29.46;41.13;100824.56;4445651;32;20045;-68
2021/08/22 06:55:42;;;;;;;9.30;5.55;;;;;;;28.70;41.77;100822.28;4444446;32;20025;-68
2021/08/22 06:58:08;;;;;;;6.12;4.15;;;;;;;29.61;40.97;100821.00;4450996;32;20025;-68
2021/08/22 07:00:34;;;;;;;8.40;4.87;;;;;;;29.24;41.15;100828.06;4445705;32;20081;-68
2021/08/22 07:03:00;;;;;;;7.20;3.37;;;;;;;29.64;41.04;100826.47;4450583;32;20044;-68
2021/08/22 07:05:26;;;;;;;4.07;2.80;;;;;;;29.37;41.38;100827.19;4448874;32;20529;-68
2021/08/22 07:07:52;;;;;;;4.75;2.90;;;;;;;29.24;42.02;100830.97;4449232;32;20069;-68
2021/08/22 07:10:17;;;;;;;5.70;3.12;;;;;;;29.38;43.01;100837.44;4440301;32;20065;-68
2021/08/22 07:12:43;;;;;;;3.95;2.83;;;;;;;29.31;43.42;100841.06;4447468;32;20037;-68
2021/08/22 07:15:12;;;;;;;3.80;2.42;;;;;;;28.82;44.01;100850.44;4452361;32;20157;-68
2021/08/22 07:17:37;;;;;;;4.68;3.20;;;;;;;28.92;43.10;100845.72;4453194;32;20613;-68
2021/08/22 07:20:04;;;;;;;5.15;3.10;;;;;;;28.58;44.31;100850.75;4446624;32;20077;-68
2021/08/22 07:22:30;;;;;;;6.43;3.08;;;;;;;28.61;45.00;100851.72;4450971;32;20174;-68
2021/08/22 07:24:58;;;;;;;6.47;3.22;;;;;;;28.65;45.03;100857.94;4451294;32;20082;-68
2021/08/22 07:27:24;;;;;;;6.07;3.42;;;;;;;29.02;43.78;100857.56;4448903;32;20136;-68
2021/08/22 07:29:50;;;;;;;7.82;3.45;;;;;;;28.77;43.67;100857.13;4445431;32;20150;-68
2021/08/22 07:32:16;;;;;;;5.05;3.22;;;;;;;28.83;44.21;100854.09;4445161;32;20053;-68
2021/08/22 07:34:41;;;;;;;5.32;3.50;;;;;;;29.07;43.64;100853.00;4439845;32;20049;-68
2021/08/22 07:37:07;;;;;;;5.93;3.45;;;;;;;28.93;43.77;100849.41;4448872;32;20095;-68
2021/08/22 07:39:33;;;;;;;8.98;3.75;;;;;;;29.29;42.96;100859.00;4445407;32;20371;-68
2021/08/22 07:42:00;;;;;;;7.18;3.55;;;;;;;29.21;42.88;100869.78;4449252;32;20378;-68
2021/08/22 07:44:26;;;;;;;7.68;3.65;;;;;;;29.29;42.18;100867.72;4450442;32;20099;-68
2021/08/22 07:46:51;;;;;;;6.03;3.50;;;;;;;29.33;42.56;100873.94;4450164;32;20452;-68
2021/08/22 07:49:19;;;;;;;8.15;4.57;;;;;;;28.98;42.66;100875.31;4452249;32;20097;-68
2021/08/22 07:51:47;;;;;;;8.40;4.90;;;;;;;29.15;41.43;100885.75;4444628;32;20067;-68
2021/08/22 07:54:13;;;;;;;9.32;5.03;;;;;;;28.78;43.11;100890.53;4450754;32;20029;-68
2021/08/22 07:56:41;;;;;;;11.23;4.62;;;;;;;28.48;43.21;100896.00;4447773;32;20033;-68
2021/08/22 07:59:08;;;;;;;12.50;5.85;;;;;;;28.46;42.83;100892.09;4451602;32;20101;-67
2021/08/22 08:01:35;;;;;;;8.10;4.82;;;;;;;28.03;44.36;100894.56;4441097;32;20084;-67
2021/08/22 08:04:01;;;;;;;9.23;4.68;;;;;;;28.88;42.53;100894.53;4444573;32;20080;-67
2021/08/22 08:06:26;;;;;;;10.60;4.85;;;;;;;28.63;42.67;100906.97;4443517;32;20442;-68
2021/08/22 08:08:52;;;;;;;8.60;4.90;;;;;;;28.79;42.41;100906.59;4441373;32;20093;-68
2021/08/22 08:11:18;;;;;;;10.15;4.18;;;;;;;29.24;42.33;100914.25;4445824;32;20120;-68
2021/08/22 08:13:43;;;;;;;9.30;4.45;;;;;;;29.51;41.58;100912.75;4449803;32;20076;-68
2021/08/22 08:16:09;;;;;;;7.65;4.00;;;;;;;29.26;41.20;100912.31;4445212;32;20340;-68
2021/08/22 08:18:35;;;;;;;9.73;4.12;;;;;;;29.55;40.78;100913.97;4444876;32;20064;-68
2021/08/22 08:21:03;;;;;;;6.53;3.65;;;;;;;29.75;40.56;100918.97;4440074;32;20065;-68
2021/08/22 08:23:29;;;;;;;8.30;4.20;;;;;;;30.10;40.10;100914.59;4441620;32;20058;-68
2021/08/22 08:25:55;;;;;;;6.07;3.62;;;;;;;30.41;39.73;100920.03;4453393;32;20107;-68
2021/08/22 08:28:21;;;;;;;7.55;3.45;;;;;;;30.72;39.24;100923.81;4444826;32;20132;-68
2021/08/22 08:30:47;;;;;;;7.05;2.90;;;;;;;30.75;38.82;100925.59;4445444;32;20068;-68
2021/08/22 08:33:13;;;;;;;7.80;3.50;;;;;;;30.91;37.66;100935.13;4428768;32;20067;-68
2021/08/22 08:35:38;;;;;;;5.43;3.03;;;;;;;31.23;37.36;100936.19;4446919;32;20064;-68
2021/08/22 08:38:04;;;;;;;7.12;3.28;;;;;;;30.94;37.48;100928.19;4448747;32;20131;-68
2021/08/22 08:40:30;;;;;;;7.53;3.35;;;;;;;31.03;37.47;100939.25;4440815;32;20029;-68
2021/08/22 08:42:57;;;;;;;6.00;3.30;;;;;;;31.42;37.11;100942.47;4445168;32;20085;-68
2021/08/22 08:46:03;;;;;;;5.97;3.05;;;;;;;32.15;36.41;100950.22;4444410;32;20101;-68
2021/08/22 08:48:32;;;;;;;6.78;3.97;;;;;;;31.73;36.53;100954.88;4441709;32;20029;-68
2021/08/22 08:56:23;;;;;;;6.47;3.42;;;;;;;31.83;36.57;100956.66;3982262;32;15023256;-68
2021/08/22 08:58:49;;;;;;;4.57;2.87;;;;;;;31.83;36.57;100956.66;4438762;32;20134;-68
2021/08/22 09:01:15;;;;;;;6.12;3.15;;;;;;;31.24;37.59;100958.13;4442314;32;20097;-68
2021/08/22 09:04:02;;;;;;;8.90;3.20;;;;;;;30.46;38.75;100959.72;4442824;32;20041;-68
2021/08/22 09:15:12;;;;;;;6.35;3.65;;;;;;;31.42;37.96;100983.19;3985501;32;15023011;-68
2021/08/22 09:18:18;;;;;;;8.20;3.33;;;;;;;31.42;37.96;100983.19;4439861;32;20029;-68
2021/08/22 09:21:25;;;;;;;7.68;3.05;;;;;;;31.05;38.29;100980.94;4438061;32;20033;-68
2021/08/22 09:24:30;;;;;;;6.28;3.40;;;;;;;31.72;36.87;100983.22;4436894;32;20079;-68
2021/08/22 09:33:15;;;;;;;6.80;3.17;;;;;;;32.90;34.70;101010.47;3986493;32;15023386;-69
2021/08/22 09:39:04;;;;;;;7.07;5.00;;;;;;;33.29;34.10;101009.72;3979381;32;15027006;-69
2021/08/22 10:11:16;;;;;;;5.35;2.72;;;;;;;30.08;39.72;101037.06;3985077;32;15022587;-68
2021/08/22 10:13:42;;;;;;;3.35;2.28;;;;;;;30.08;39.72;101037.06;4437607;32;20036;-67
2021/08/22 10:16:08;;;;;;;5.80;2.80;;;;;;;28.87;41.32;101042.88;4437896;32;20068;-67
2021/08/22 10:18:34;;;;;;;4.97;3.08;;;;;;;29.49;40.96;101035.12;4439973;32;20065;-69
2021/08/22 10:21:02;;;;;;;8.27;4.30;;;;;;;29.25;41.10;101040.44;4438520;32;20195;-69
2021/08/22 10:26:08;;;;;;;6.05;3.10;;;;;;;30.43;38.94;101061.75;3986640;32;15026801;-69
2021/08/22 10:34:29;;;;;;;6.97;3.42;;;;;;;31.14;37.43;101058.91;3985666;32;15026742;-69
2021/08/22 10:36:55;;;;;;;5.80;3.05;;;;;;;31.14;37.43;101058.91;4439025;32;20021;-69
2021/08/22 10:42:18;;;;;;;8.00;2.97;;;;;;;30.91;37.75;101063.03;3985206;32;15022847;-69
2021/08/22 10:44:44;;;;;;;7.12;2.95;;;;;;;30.91;37.75;101063.03;4440014;32;20025;-67
2021/08/22 10:47:12;;;;;;;3.75;2.17;;;;;;;30.41;38.77;101076.06;4436582;32;20029;-68
2021/08/22 10:52:31;;;;;;;5.68;2.37;;;;;;;31.29;37.49;101084.37;3983251;32;15023213;-69
2021/08/22 10:57:52;;;;;;;3.25;1.67;;;;;;;31.50;36.18;101077.06;3964322;32;15022978;-69
2021/08/22 11:05:36;;;;;;;4.85;2.30;;;;;;;32.22;35.67;101101.69;3998880;31;15014794;-69
2021/08/22 11:08:20;;;;;;;6.07;2.17;;;;;;;32.22;35.67;101101.69;4442919;32;20063;-68
2021/08/22 11:11:03;;;;;;;5.20;3.40;;;;;;;32.28;36.28;101108.06;4451312;32;20037;-68
2021/08/22 11:16:10;;;;;;;4.37;2.80;;;;;;;32.89;36.81;101119.72;3985605;32;15022578;-67
2021/08/22 11:18:37;;;;;;;4.87;3.00;;;;;;;32.89;36.81;101119.72;4435094;32;20061;-67
2021/08/22 11:21:03;;;;;;;4.97;2.95;;;;;;;32.12;38.22;101114.50;4438782;32;20515;-68
2021/08/22 11:23:30;;;;;;;5.72;3.42;;;;;;;32.07;38.31;101109.62;4435327;32;20338;-68
2021/08/22 11:26:02;;;;;;;5.03;3.40;;;;;;;31.98;38.67;101105.16;4436925;32;20017;-68
2021/08/22 11:28:29;;;;;;;4.43;3.12;;;;;;;31.65;38.84;101102.50;4438105;32;20049;-68
2021/08/22 11:30:55;;;;;;;4.57;3.05;;;;;;;32.41;38.79;101107.13;4436802;32;20531;-68
2021/08/22 11:33:20;;;;;;;4.50;2.72;;;;;;;33.05;37.93;101104.50;4436243;32;20052;-68
2021/08/22 11:35:47;;;;;;;5.47;2.95;;;;;;;33.74;35.68;101106.53;4438857;32;20073;-68
2021/08/22 11:38:14;;;;;;;6.37;3.08;;;;;;;35.13;31.93;101107.91;4437470;32;20085;-68
2021/08/22 11:40:41;;;;;;;4.60;2.30;;;;;;;35.82;32.20;101106.44;4437008;32;20021;-68
2021/08/22 11:43:09;;;;;;;4.18;2.55;;;;;;;36.61;30.67;101109.84;4440501;32;20041;-68
2021/08/22 11:45:39;;;;;;;5.32;2.70;;;;;;;36.78;28.87;101113.47;4439114;32;20025;-68
2021/08/22 11:48:07;;;;;;;3.28;2.40;;;;;;;37.06;28.89;101109.03;4434549;32;20037;-68
2021/08/22 11:50:36;;;;;;;4.62;2.22;;;;;;;37.88;28.19;101115.28;4440757;32;20061;-68
2021/08/22 11:53:04;;;;;;;7.60;3.92;;;;;;;38.12;26.25;101117.09;4437813;32;20430;-68
2021/08/22 11:55:33;;;;;;;4.75;2.58;;;;;;;38.87;26.44;101112.19;4435572;32;20340;-68
2021/08/22 12:00:44;;;;;;;2.30;1.80;;;;;;;38.35;25.12;101126.13;3978482;32;15148851;-69
2021/08/22 12:03:15;;;;;;;4.87;2.50;;;;;;;38.35;25.12;101126.13;4439945;32;20591;-69
2021/08/22 12:06:05;;;;;;;5.25;2.50;;;;;;;35.88;28.06;101118.66;4433876;32;20058;-69
2021/08/22 12:08:32;;;;;;;5.90;3.08;;;;;;;35.86;28.81;101121.41;4430713;32;20172;-69
2021/08/22 12:11:14;;;;;;;6.60;2.72;;;;;;;35.65;29.27;101124.03;4439269;32;20775;-69
2021/08/22 12:13:42;;;;;;;4.25;2.28;;;;;;;36.25;28.74;101133.34;4434641;32;20449;-69
2021/08/22 12:16:31;;;;;;;3.62;2.42;;;;;;;36.62;27.88;101131.94;4436581;32;20119;-69
2021/08/22 12:19:17;;;;;;;3.87;2.20;;;;;;;37.02;26.96;101129.28;4435594;32;20132;-69
2021/08/22 12:21:43;;;;;;;4.95;2.33;;;;;;;37.78;26.55;101135.13;4436180;32;20100;-70
2021/08/22 12:27:02;;;;;;;4.05;1.80;;;;;;;39.29;23.70;101138.72;3983310;32;15024054;-70
2021/08/22 12:29:30;;;;;;;3.65;1.80;;;;;;;39.29;23.70;101138.72;4439547;32;20376;-70
2021/08/22 12:32:07;;;;;;;3.28;2.45;;;;;;;38.86;23.53;101131.28;4441148;32;20101;-69
2021/08/22 12:34:33;;;;;;;3.90;2.20;;;;;;;39.27;24.27;101135.63;4440036;32;20090;-69
2021/08/22 12:37:08;;;;;;;2.25;1.75;;;;;;;39.51;23.66;101139.47;4439391;32;20042;-70
2021/08/22 12:39:35;;;;;;;4.12;2.55;;;;;;;40.51;22.64;101142.37;4441011;32;20029;-70
2021/08/22 12:42:00;;;;;;;3.65;2.05;;;;;;;40.79;22.05;101150.06;4439078;32;20052;-69
2021/08/22 12:44:27;;;;;;;3.75;2.35;;;;;;;41.36;20.97;101147.00;4440550;32;20034;-69
2021/08/22 12:46:55;;;;;;;2.22;2.03;;;;;;;40.29;22.42;101146.88;4441058;32;20088;-69
2021/08/22 12:49:21;;;;;;;5.80;2.30;;;;;;;40.03;22.61;101145.16;4437563;32;20132;-69